createdAt,value
2019-02-17T00:01:52.250Z,102022.52
2019-02-17T00:07:15.877Z,102023.95
2019-02-17T00:12:40.878Z,102027.45
2019-02-17T00:18:05.298Z,102024.67
2019-02-17T00:23:29.337Z,102029.11
2019-02-17T00:28:59.400Z,102027.91
2019-02-17T00:34:20.146Z,102026.36
2019-02-17T00:39:44.471Z,102027.35
2019-02-17T00:45:09.715Z,102027.40
2019-02-17T00:50:34.387Z,102029.16
2019-02-17T00:55:58.236Z,102027.16
2019-02-17T01:01:22.026Z,102030.27
2019-02-17T01:06:46.504Z,102024.61
2019-02-17T01:12:11.353Z,102028.81
2019-02-17T01:17:35.811Z,102025.64
2019-02-17T01:22:59.605Z,102030.91
2019-02-17T01:28:23.563Z,102029.16
2019-02-17T01:33:48.256Z,102026.58
2019-02-17T01:39:13.080Z,102030.47
2019-02-17T01:44:36.959Z,102030.89
2019-02-17T01:50:00.601Z,102025.77
2019-02-17T01:55:24.907Z,102035.91
2019-02-17T02:00:49.606Z,102040.22
2019-02-17T02:06:13.363Z,102024.34
2019-02-17T02:11:38.422Z,102020.09
2019-02-17T02:17:03.185Z,102020.88
2019-02-17T02:22:27.772Z,102022.02
2019-02-17T02:27:51.447Z,102018.50
2019-02-17T02:33:15.737Z,102017.06
2019-02-17T02:38:40.354Z,102021.81
2019-02-17T02:44:05.274Z,102023.07
2019-02-17T02:49:30.349Z,102017.30
2019-02-17T02:54:54.177Z,102017.72
2019-02-17T03:00:18.176Z,102019.91
2019-02-17T03:05:53.319Z,102025.89
2019-02-17T03:11:17.114Z,102021.94
2019-02-17T03:16:41.303Z,102034.95
2019-02-17T03:22:05.912Z,102030.27
2019-02-17T03:27:30.328Z,102034.16
2019-02-17T03:32:55.142Z,102030.44
2019-02-17T03:38:18.912Z,102043.17
2019-02-17T03:43:43.560Z,102047.50
2019-02-17T03:49:08.355Z,102044.58
2019-02-17T03:54:33.170Z,102048.44
2019-02-17T03:59:57.987Z,102059.09
2019-02-17T04:05:23.058Z,102056.89
2019-02-17T04:10:46.859Z,102056.11
2019-02-17T04:16:10.813Z,102052.78
2019-02-17T04:21:35.172Z,102055.87
2019-02-17T04:26:59.152Z,102048.51
2019-02-17T04:32:23.137Z,102048.16
2019-02-17T04:37:47.844Z,102053.40
2019-02-17T04:43:12.589Z,102046.98
2019-02-17T04:48:37.296Z,102047.89
2019-02-17T04:54:01.413Z,102053.09
2019-02-17T04:59:25.830Z,102047.05
2019-02-17T05:04:49.657Z,102043.62
2019-02-17T05:10:14.439Z,102051.80
2019-02-17T05:15:39.252Z,102036.73
2019-02-17T05:21:03.689Z,102040.96
2019-02-17T05:26:27.291Z,102039.30
2019-02-17T05:31:52.066Z,102045.28
2019-02-17T05:37:16.178Z,102049.52
2019-02-17T05:42:40.523Z,102052.04
2019-02-17T05:48:04.187Z,102046.48
2019-02-17T05:53:28.590Z,102051.64
2019-02-17T05:58:53.163Z,102049.91
2019-02-17T06:04:17.626Z,102062.42
2019-02-17T06:09:42.298Z,102063.28
2019-02-17T06:15:06.932Z,102064.14
2019-02-17T06:20:31.758Z,102068.86
2019-02-17T06:25:55.710Z,102067.59
2019-02-17T06:31:19.355Z,102074.89
2019-02-17T06:36:43.854Z,102074.42
2019-02-17T06:42:08.608Z,102083.77
2019-02-17T06:47:33.739Z,102085.33
2019-02-17T06:52:58.979Z,102085.48
2019-02-17T06:58:23.661Z,102082.81
2019-02-17T07:03:47.791Z,102087.72
2019-02-17T07:09:11.656Z,102077.45
2019-02-17T07:14:35.297Z,102071.02
2019-02-17T07:19:59.684Z,102069.79
2019-02-17T07:25:30.020Z,102070.86
2019-02-17T07:30:48.970Z,102079.12
2019-02-17T07:36:13.763Z,102068.28
2019-02-17T07:41:38.207Z,102065.07
2019-02-17T07:47:02.010Z,102072.05
2019-02-17T07:52:26.722Z,102074.22
2019-02-17T07:57:51.303Z,102083.41
2019-02-17T08:03:16.181Z,102079.75
2019-02-17T08:08:39.877Z,102077.84
2019-02-17T08:14:03.970Z,102088.05
2019-02-17T08:19:28.076Z,102085.78
2019-02-17T08:24:51.852Z,102082.10
2019-02-17T08:30:16.240Z,102081.47
2019-02-17T08:35:40.913Z,102093.38
2019-02-17T08:41:05.542Z,102096.41
2019-02-17T08:46:30.074Z,102098.37
2019-02-17T08:51:54.774Z,102096.08
2019-02-17T08:57:19.009Z,102092.31
2019-02-17T09:02:42.875Z,102087.87
2019-02-17T09:08:06.683Z,102080.05
2019-02-17T09:13:32.034Z,102078.47
2019-02-17T09:18:56.772Z,102079.41
2019-02-17T09:24:20.757Z,102071.94
2019-02-17T09:29:46.934Z,102072.16
2019-02-17T09:35:10.595Z,102070.31
2019-02-17T09:40:35.109Z,102060.55
2019-02-17T09:46:00.682Z,102054.34
2019-02-17T09:51:25.248Z,102054.48
2019-02-17T09:56:49.988Z,102034.16
2019-02-17T10:02:14.129Z,102029.36
2019-02-17T10:07:38.613Z,102034.77
2019-02-17T10:13:03.359Z,102034.01
2019-02-17T10:18:27.277Z,102037.91
2019-02-17T10:23:51.987Z,102028.22
2019-02-17T10:29:16.734Z,102027.06
2019-02-17T10:34:41.493Z,102022.11
2019-02-17T10:40:06.908Z,102022.86
2019-02-17T10:45:31.138Z,102014.62
2019-02-17T10:50:55.820Z,102011.17
2019-02-17T10:56:20.523Z,102005.53
2019-02-17T11:01:45.013Z,101996.31
2019-02-17T11:07:09.820Z,101986.70
2019-02-17T11:12:34.552Z,101981.11
2019-02-17T11:17:59.587Z,101961.77
2019-02-17T11:23:24.126Z,101956.38
2019-02-17T11:28:48.202Z,101949.55
2019-02-17T11:34:12.605Z,101933.34
2019-02-17T11:39:37.707Z,101939.65
2019-02-17T11:45:01.524Z,101930.52
2019-02-17T11:50:26.079Z,101935.13
2019-02-17T11:55:50.949Z,101927.73
2019-02-17T12:01:15.115Z,101918.84
2019-02-17T12:06:39.608Z,101918.02
2019-02-17T12:12:03.502Z,101917.30
2019-02-17T12:17:27.921Z,101918.32
2019-02-17T12:22:57.684Z,101920.31
2019-02-17T12:28:26.821Z,101918.71
2019-02-17T12:33:50.987Z,101902.25
2019-02-17T12:39:15.477Z,101889.36
2019-02-17T12:44:39.346Z,101895.03
2019-02-17T12:50:05.043Z,101882.38
2019-02-17T12:55:30.011Z,101865.82
2019-02-17T13:00:54.697Z,101873.70
2019-02-17T13:06:19.169Z,101875.34
2019-02-17T13:11:43.689Z,101870.20
2019-02-17T13:17:08.672Z,101866.25
2019-02-17T13:22:32.285Z,101866.02
2019-02-17T13:27:56.186Z,101862.41
2019-02-17T13:33:20.910Z,101859.71
2019-02-17T13:38:45.489Z,101856.47
2019-02-17T13:44:09.800Z,101850.25
2019-02-17T13:49:34.521Z,101855.34
2019-02-17T13:54:58.462Z,101852.03
2019-02-17T14:00:22.602Z,101843.98
2019-02-17T14:05:46.448Z,101838.05
2019-02-17T14:11:11.974Z,101840.25
2019-02-17T14:16:36.689Z,101835.25
2019-02-17T14:22:01.143Z,101831.72
2019-02-17T14:27:25.695Z,101830.78
2019-02-17T14:32:50.314Z,101824.67
2019-02-17T14:38:14.478Z,101812.42
2019-02-17T14:43:38.373Z,101810.45
2019-02-17T14:49:02.642Z,101797.41
2019-02-17T14:54:27.343Z,101790.69
2019-02-17T14:59:52.024Z,101794.62
2019-02-17T15:05:15.799Z,101792.52
2019-02-17T15:10:39.944Z,101782.33
2019-02-17T15:16:04.597Z,101776.80
2019-02-17T15:21:28.322Z,101777.63
2019-02-17T15:26:52.902Z,101769.42
2019-02-17T15:32:17.507Z,101765.59
2019-02-17T15:37:41.356Z,101762.31
2019-02-17T15:43:05.915Z,101755.14
2019-02-17T15:48:31.480Z,101747.78
2019-02-17T15:53:55.534Z,101739.14
2019-02-17T15:59:20.409Z,101748.92
2019-02-17T16:04:45.188Z,101743.98
2019-02-17T16:10:09.962Z,101744.88
2019-02-17T16:15:33.723Z,101734.91
2019-02-17T16:20:58.769Z,101738.33
2019-02-17T16:26:23.570Z,101729.54
2019-02-17T16:31:47.420Z,101729.63
2019-02-17T16:37:11.231Z,101733.17
2019-02-17T16:42:35.044Z,101740.24
2019-02-17T16:47:58.833Z,101745.42
2019-02-17T16:53:23.207Z,101755.56
2019-02-17T16:58:47.083Z,101754.92
2019-02-17T17:04:10.843Z,101756.21
2019-02-17T17:09:34.551Z,101761.47
2019-02-17T17:14:59.395Z,101762.04
2019-02-17T17:20:24.317Z,101755.02
2019-02-17T17:25:49.510Z,101762.61
2019-02-17T17:31:15.296Z,101758.75
2019-02-17T17:36:39.149Z,101747.42
2019-02-17T17:42:02.951Z,101752.24
2019-02-17T17:47:27.441Z,101756.16
2019-02-17T17:52:51.941Z,101744.44
2019-02-17T17:58:15.526Z,101751.67
2019-02-17T18:03:40.198Z,101748.77
2019-02-17T18:09:06.812Z,101751.98
2019-02-17T18:14:31.238Z,101747.31
2019-02-17T18:19:55.923Z,101747.87
2019-02-17T18:25:20.238Z,101743.69
2019-02-17T18:30:45.053Z,101736.38
2019-02-17T18:36:08.806Z,101741.01
2019-02-17T18:41:33.516Z,101742.95
2019-02-17T18:46:57.209Z,101745.50
2019-02-17T18:52:22.020Z,101750.20
2019-02-17T18:57:50.063Z,101754.20
2019-02-17T19:03:11.285Z,101755.96
2019-02-17T19:08:35.722Z,101743.79
2019-02-17T19:14:00.787Z,101744.56
2019-02-17T19:19:25.276Z,101731.22
2019-02-17T19:24:49.425Z,101737.39
2019-02-17T19:30:14.857Z,101733.09
2019-02-17T19:35:42.201Z,101732.03
2019-02-17T19:41:06.216Z,101721.16
2019-02-17T19:46:30.056Z,101728.35
2019-02-17T19:51:54.108Z,101738.81
2019-02-17T19:57:17.911Z,101735.67
2019-02-17T20:02:55.067Z,101737.34
2019-02-17T20:08:19.900Z,101738.37
2019-02-17T20:13:44.589Z,101733.59
2019-02-17T20:19:09.894Z,101729.34
2019-02-17T20:24:33.726Z,101728.42
2019-02-17T20:29:58.355Z,101728.33
2019-02-17T20:35:22.383Z,101729.49
2019-02-17T20:40:47.449Z,101735.28
2019-02-17T20:46:12.115Z,101722.25
2019-02-17T20:51:36.774Z,101716.34
2019-02-17T20:57:00.673Z,101715.08
2019-02-17T21:02:24.523Z,101714.86
2019-02-17T21:07:48.091Z,101711.70
2019-02-17T21:13:11.628Z,101715.17
2019-02-17T21:18:36.712Z,101713.14
2019-02-17T21:24:01.064Z,101719.36
2019-02-17T21:29:25.723Z,101719.09
2019-02-17T21:34:50.124Z,101723.86
2019-02-17T21:40:15.606Z,101714.81
2019-02-17T21:45:39.679Z,101720.39
2019-02-17T21:51:04.557Z,101718.02
2019-02-17T21:56:29.272Z,101720.55
2019-02-17T22:01:54.044Z,101723.67
2019-02-17T22:07:17.958Z,101716.05
2019-02-17T22:12:41.756Z,101719.03
2019-02-17T22:18:06.697Z,101712.56
2019-02-17T22:23:30.502Z,101703.86
2019-02-17T22:28:55.704Z,101700.72
2019-02-17T22:34:20.056Z,101697.76
2019-02-17T22:39:43.890Z,101693.77
2019-02-17T22:45:08.695Z,101695.11
2019-02-17T22:50:33.496Z,101694.54
2019-02-17T22:55:57.404Z,101684.41
2019-02-17T23:01:26.482Z,101684.61
2019-02-17T23:06:54.103Z,101682.45
2019-02-17T23:12:17.226Z,101677.28
2019-02-17T23:17:40.885Z,101675.08
2019-02-17T23:23:04.654Z,101673.84
2019-02-17T23:28:29.318Z,101678.34
2019-02-17T23:33:53.043Z,101675.83
2019-02-17T23:39:17.016Z,101677.51
2019-02-17T23:44:41.536Z,101681.72
2019-02-17T23:50:06.893Z,101666.14
2019-02-17T23:55:31.333Z,101666.78
